Time;durP1;ratioP1;P1;durP2;ratioP2;P2;SDS_P1;SDS_P2;PMS_P1;PMS_P2;Temp;Humidity;BMP_temperature;BMP_pressure;BME280_temperature;BME280_humidity;BME280_pressure;Samples;Min_cycle;Max_cycle;Signal;HPM_P1;HPM_P2
2023/12/18 00:00:53;;;;;;;69.30;28.80;;;;;;;0.91;100.00;98707.06;5011587;28;20108;-66
2023/12/18 00:03:19;;;;;;;68.10;27.50;;;;;;;0.86;100.00;98705.13;5006713;28;20034;-68
2023/12/18 00:05:44;;;;;;;59.40;26.30;;;;;;;0.77;100.00;98701.25;5003276;28;20137;-66
2023/12/18 00:08:11;;;;;;;63.83;26.95;;;;;;;0.79;100.00;98704.50;4999740;28;20128;-67
2023/12/18 00:10:37;;;;;;;67.30;25.95;;;;;;;0.76;100.00;98697.75;5008094;28;20532;-67
2023/12/18 00:13:02;;;;;;;58.00;24.67;;;;;;;0.75;100.00;98698.81;5005706;28;20034;-67
2023/12/18 00:15:27;;;;;;;59.47;25.45;;;;;;;0.59;100.00;98705.09;5014629;28;20033;-71
2023/12/18 00:17:53;;;;;;;65.32;26.63;;;;;;;0.55;100.00;98691.31;5022459;28;20045;-70
2023/12/18 00:20:18;;;;;;;66.78;27.77;;;;;;;0.57;100.00;98694.56;5006531;28;20040;-74
2023/12/18 00:22:44;;;;;;;57.13;25.83;;;;;;;0.59;100.00;98688.13;5010943;28;20131;-72
2023/12/18 00:25:09;;;;;;;66.28;27.80;;;;;;;0.54;100.00;98691.56;5005015;28;20436;-74
2023/12/18 00:27:34;;;;;;;62.28;27.27;;;;;;;0.45;100.00;98685.81;5009627;28;20041;-72
2023/12/18 00:30:00;;;;;;;67.20;27.42;;;;;;;0.59;100.00;98683.53;5016644;28;20030;-72
2023/12/18 00:32:25;;;;;;;62.95;26.15;;;;;;;0.70;100.00;98673.66;5001781;28;20061;-71
2023/12/18 00:34:51;;;;;;;63.63;26.95;;;;;;;0.69;100.00;98678.25;5016466;28;20069;-70
2023/12/18 00:37:16;;;;;;;61.00;26.13;;;;;;;0.66;100.00;98669.88;5011592;28;20416;-72
2023/12/18 00:39:42;;;;;;;64.45;26.80;;;;;;;0.62;100.00;98677.66;5006739;28;20041;-71
2023/12/18 00:42:07;;;;;;;67.32;26.40;;;;;;;0.51;100.00;98674.03;5008351;28;20053;-71
2023/12/18 00:44:32;;;;;;;67.45;27.17;;;;;;;0.43;100.00;98679.03;5013563;28;20048;-72
2023/12/18 00:46:58;;;;;;;68.45;27.63;;;;;;;0.59;100.00;98675.44;5008041;28;20134;-72
2023/12/18 00:49:27;;;;;;;68.20;26.98;;;;;;;0.72;100.00;98671.53;5027978;28;20041;-72
2023/12/18 00:51:53;;;;;;;62.78;26.15;;;;;;;0.75;100.00;98669.13;5007620;28;20041;-72
2023/12/18 00:54:18;;;;;;;70.47;28.08;;;;;;;0.88;100.00;98670.66;5012537;28;20049;-71
2023/12/18 00:56:44;;;;;;;66.22;26.10;;;;;;;0.88;100.00;98670.66;5006775;28;20588;-71
2023/12/18 00:59:09;;;;;;;59.35;25.15;;;;;;;0.80;100.00;98665.69;5030859;28;20045;-71
2023/12/18 01:01:35;;;;;;;59.95;24.55;;;;;;;0.69;100.00;98675.56;5005560;28;20489;-72
2023/12/18 01:04:00;;;;;;;67.10;26.65;;;;;;;0.77;100.00;98666.19;5006804;28;20590;-70
2023/12/18 01:06:25;;;;;;;68.85;26.75;;;;;;;0.66;100.00;98667.16;5014256;28;20046;-72
2023/12/18 01:08:51;;;;;;;57.50;26.00;;;;;;;0.60;100.00;98670.88;5008353;28;20033;-71
2023/12/18 01:11:16;;;;;;;64.32;26.48;;;;;;;0.70;100.00;98669.13;5004771;28;20049;-72
2023/12/18 01:13:41;;;;;;;58.55;24.88;;;;;;;0.80;100.00;98671.09;5016804;28;20141;-72
2023/12/18 01:16:07;;;;;;;64.65;26.35;;;;;;;0.76;100.00;98664.59;5014810;28;20311;-71
2023/12/18 01:18:32;;;;;;;64.35;26.73;;;;;;;0.75;100.00;98666.44;5008160;28;20491;-72
2023/12/18 01:21:12;;;;;;;61.55;25.33;;;;;;;0.73;100.00;98668.59;5007000;28;20041;-71
2023/12/18 01:23:37;;;;;;;71.40;27.65;;;;;;;0.74;100.00;98667.53;4993079;28;20041;-72
2023/12/18 01:26:03;;;;;;;66.60;27.25;;;;;;;0.57;100.00;98659.50;5006321;28;20063;-68
2023/12/18 01:28:28;;;;;;;68.63;28.00;;;;;;;0.67;100.00;98664.22;5002503;28;20384;-72
2023/12/18 01:30:53;;;;;;;64.05;26.65;;;;;;;0.71;100.00;98664.53;5012985;28;20139;-70
2023/12/18 01:33:19;;;;;;;61.75;26.10;;;;;;;0.72;100.00;98661.56;5003866;28;20117;-69
2023/12/18 01:35:44;;;;;;;67.50;27.67;;;;;;;0.82;100.00;98668.13;5005282;28;20053;-70
2023/12/18 01:38:10;;;;;;;66.25;27.90;;;;;;;0.78;100.00;98670.53;5007582;28;20037;-71
2023/12/18 01:40:35;;;;;;;67.28;27.27;;;;;;;0.78;100.00;98665.13;5003188;28;20029;-72
2023/12/18 01:43:00;;;;;;;71.80;27.92;;;;;;;0.79;100.00;98668.63;5012478;28;20485;-71
2023/12/18 01:45:26;;;;;;;66.72;29.33;;;;;;;0.82;100.00;98663.56;5004538;28;20316;-71
2023/12/18 01:47:52;;;;;;;67.85;26.83;;;;;;;0.92;100.00;98660.16;5027398;28;20048;-71
2023/12/18 01:50:17;;;;;;;66.75;29.95;;;;;;;0.87;100.00;98669.00;5005841;28;20120;-69
2023/12/18 01:52:44;;;;;;;64.65;28.23;;;;;;;0.78;100.00;98661.63;5013594;28;20033;-71
2023/12/18 01:55:10;;;;;;;62.33;25.55;;;;;;;0.86;100.00;98663.84;4997715;28;20034;-71
2023/12/18 01:57:36;;;;;;;58.50;25.77;;;;;;;0.86;100.00;98658.47;5008785;28;20042;-69
2023/12/18 02:00:02;;;;;;;59.28;25.20;;;;;;;0.87;100.00;98660.09;5009527;28;20526;-70
2023/12/18 02:02:28;;;;;;;64.00;26.88;;;;;;;0.73;100.00;98652.41;5005305;28;20056;-69
2023/12/18 02:04:54;;;;;;;66.35;27.33;;;;;;;0.70;100.00;98652.94;5009978;28;20049;-72
2023/12/18 02:07:19;;;;;;;68.53;28.85;;;;;;;0.78;100.00;98659.75;4996770;28;20096;-71
2023/12/18 02:09:46;;;;;;;70.80;29.05;;;;;;;0.70;100.00;98652.09;5000255;28;20060;-71
2023/12/18 02:12:11;;;;;;;53.55;22.25;;;;;;;0.84;100.00;98644.41;5015292;28;20044;-68
2023/12/18 02:14:37;;;;;;;58.67;23.85;;;;;;;0.71;100.00;98645.66;5011912;28;20063;-70
2023/12/18 02:17:03;;;;;;;64.93;26.70;;;;;;;0.50;100.00;98634.63;5011150;28;20037;-67
2023/12/18 02:19:29;;;;;;;69.25;27.00;;;;;;;0.32;100.00;98633.09;5010230;28;20041;-70
2023/12/18 02:21:55;;;;;;;71.35;27.35;;;;;;;0.43;100.00;98639.41;5006179;28;20048;-70
2023/12/18 02:24:21;;;;;;;64.53;25.83;;;;;;;0.41;100.00;98627.25;5015438;28;20044;-72
2023/12/18 02:26:46;;;;;;;64.72;25.88;;;;;;;0.52;100.00;98632.53;5019330;28;20071;-73
2023/12/18 02:29:12;;;;;;;59.08;25.02;;;;;;;0.53;100.00;98627.94;5010982;28;20053;-71
2023/12/18 02:31:38;;;;;;;63.90;25.92;;;;;;;0.47;100.00;98624.38;5008994;28;20091;-73
2023/12/18 02:34:04;;;;;;;60.63;25.60;;;;;;;0.59;100.00;98624.22;5011923;28;20095;-70
2023/12/18 02:36:29;;;;;;;64.78;25.58;;;;;;;0.70;100.00;98625.13;5038285;28;20504;-71
2023/12/18 02:38:55;;;;;;;63.28;25.15;;;;;;;0.62;100.00;98631.00;5015323;28;20033;-71
2023/12/18 02:41:20;;;;;;;64.43;26.75;;;;;;;0.47;100.00;98631.63;5007771;28;20473;-70
2023/12/18 02:43:46;;;;;;;65.13;25.23;;;;;;;0.44;100.00;98627.56;5014817;28;20045;-71
2023/12/18 02:46:12;;;;;;;60.33;26.15;;;;;;;0.49;100.00;98629.53;4999533;28;20501;-72
2023/12/18 02:48:37;;;;;;;66.63;25.35;;;;;;;0.54;100.00;98624.16;5017294;28;20041;-71
2023/12/18 02:51:03;;;;;;;67.70;26.88;;;;;;;0.51;100.00;98613.91;5013608;28;20041;-68
2023/12/18 02:53:28;;;;;;;58.85;25.90;;;;;;;0.48;100.00;98614.41;5016299;28;20068;-71
2023/12/18 02:55:54;;;;;;;66.32;25.17;;;;;;;0.61;100.00;98611.28;5014936;28;20045;-72
2023/12/18 02:58:21;;;;;;;68.47;26.25;;;;;;;0.59;100.00;98616.13;5013583;28;20103;-71
2023/12/18 03:00:47;;;;;;;69.65;26.63;;;;;;;0.62;100.00;98618.31;5021167;28;20038;-72
2023/12/18 03:03:13;;;;;;;65.93;26.73;;;;;;;0.66;100.00;98622.13;5013101;28;20034;-72
2023/12/18 03:05:38;;;;;;;63.80;26.35;;;;;;;0.64;100.00;98618.06;5015406;28;20085;-72
2023/12/18 03:08:04;;;;;;;69.03;26.58;;;;;;;0.61;100.00;98615.88;5004101;28;20544;-67
2023/12/18 03:10:30;;;;;;;67.55;25.35;;;;;;;0.54;100.00;98610.66;5017782;28;20119;-72
2023/12/18 03:12:55;;;;;;;60.88;24.55;;;;;;;0.65;100.00;98604.34;5008461;28;20109;-71
2023/12/18 03:15:20;;;;;;;62.15;25.70;;;;;;;0.42;100.00;98607.34;5011493;28;20049;-72
2023/12/18 03:17:46;;;;;;;63.83;24.00;;;;;;;0.38;100.00;98607.84;5019322;28;20037;-72
2023/12/18 03:20:11;;;;;;;65.25;24.73;;;;;;;0.35;100.00;98607.53;5005629;28;20373;-69
2023/12/18 03:22:37;;;;;;;70.05;25.98;;;;;;;0.40;100.00;98606.75;5021985;28;20042;-71
2023/12/18 03:25:03;;;;;;;73.68;25.60;;;;;;;0.33;100.00;98609.66;5020081;28;20034;-68
2023/12/18 03:27:29;;;;;;;65.53;25.83;;;;;;;0.45;100.00;98602.25;5021478;28;20041;-69
2023/12/18 03:29:54;;;;;;;60.95;25.17;;;;;;;0.43;100.00;98601.66;5021404;28;20442;-72
2023/12/18 03:32:19;;;;;;;61.38;25.55;;;;;;;0.40;100.00;98596.81;5010462;28;20038;-70
2023/12/18 03:34:45;;;;;;;67.68;25.85;;;;;;;0.25;100.00;98597.44;5023027;28;20038;-71
2023/12/18 03:37:10;;;;;;;62.00;26.05;;;;;;;0.44;100.00;98595.22;5017893;28;20042;-70
2023/12/18 03:39:35;;;;;;;67.78;26.38;;;;;;;0.46;100.00;98606.56;5006215;28;20041;-72
2023/12/18 03:42:01;;;;;;;66.55;27.15;;;;;;;0.48;100.00;98607.13;5022868;28;20143;-73
2023/12/18 03:44:26;;;;;;;64.85;24.40;;;;;;;0.48;100.00;98609.00;5017709;28;20799;-72
2023/12/18 03:46:52;;;;;;;56.63;23.13;;;;;;;0.59;100.00;98607.22;5021938;28;20559;-71
2023/12/18 03:49:17;;;;;;;53.65;22.70;;;;;;;0.56;100.00;98608.56;5016424;28;20083;-70
2023/12/18 03:51:42;;;;;;;60.03;24.13;;;;;;;0.58;100.00;98603.72;5020580;28;20125;-71
2023/12/18 03:54:08;;;;;;;55.55;23.35;;;;;;;0.48;100.00;98596.31;5015695;28;20099;-72
2023/12/18 03:56:33;;;;;;;60.08;23.70;;;;;;;0.61;100.00;98603.19;5022525;28;20053;-71
2023/12/18 03:58:58;;;;;;;57.67;23.52;;;;;;;0.60;100.00;98593.50;5036822;28;20033;-70
2023/12/18 04:01:24;;;;;;;59.67;25.05;;;;;;;0.66;100.00;98597.03;5016868;28;20110;-71
2023/12/18 04:03:49;;;;;;;58.28;24.60;;;;;;;0.68;100.00;98594.91;5010364;28;20107;-71
2023/12/18 04:06:14;;;;;;;58.65;24.75;;;;;;;0.61;100.00;98597.00;4998265;28;20095;-70
2023/12/18 04:08:40;;;;;;;58.78;24.17;;;;;;;0.57;100.00;98594.78;5006298;28;20072;-74
2023/12/18 04:11:14;;;;;;;57.47;25.50;;;;;;;0.34;100.00;98604.03;4997452;28;20046;-71
2023/12/18 04:13:41;;;;;;;55.03;23.63;;;;;;;0.49;100.00;98597.97;5003810;28;20050;-71
2023/12/18 04:16:07;;;;;;;58.53;25.88;;;;;;;0.46;100.00;98593.06;4998871;28;20038;-72
2023/12/18 04:18:34;;;;;;;62.83;25.27;;;;;;;0.59;100.00;98597.25;5006548;28;20053;-71
2023/12/18 04:20:59;;;;;;;56.95;24.13;;;;;;;0.65;100.00;98595.41;5015255;28;20066;-73
2023/12/18 04:23:25;;;;;;;64.53;25.02;;;;;;;0.71;100.00;98599.78;5017889;28;20041;-74
2023/12/18 04:25:50;;;;;;;59.25;25.02;;;;;;;0.67;100.00;98587.91;5021429;28;20029;-72
2023/12/18 04:28:15;;;;;;;58.75;25.55;;;;;;;0.57;100.00;98597.50;5031693;28;20095;-71
2023/12/18 04:30:41;;;;;;;56.22;24.02;;;;;;;0.59;100.00;98596.44;5036941;28;20096;-71
2023/12/18 04:33:06;;;;;;;59.75;24.88;;;;;;;0.61;100.00;98588.91;5014144;28;20136;-72
2023/12/18 04:35:31;;;;;;;61.40;24.90;;;;;;;0.57;100.00;98585.91;5021913;28;20050;-71
2023/12/18 04:37:57;;;;;;;62.08;24.73;;;;;;;0.51;100.00;98601.22;5037395;28;20459;-72
2023/12/18 04:40:23;;;;;;;57.00;25.05;;;;;;;0.52;100.00;98596.63;5003704;28;20052;-72
2023/12/18 04:42:48;;;;;;;64.82;25.48;;;;;;;0.51;100.00;98595.03;5002485;28;20038;-72
2023/12/18 04:45:13;;;;;;;55.95;23.17;;;;;;;0.64;100.00;98591.91;4997886;28;20037;-73
2023/12/18 04:47:39;;;;;;;56.33;23.20;;;;;;;0.58;100.00;98595.63;5004851;28;20042;-71
2023/12/18 04:50:04;;;;;;;57.88;25.30;;;;;;;0.50;100.00;98598.78;5015570;28;20033;-68
2023/12/18 04:52:30;;;;;;;63.47;23.77;;;;;;;0.43;100.00;98598.16;5021651;28;20847;-70
2023/12/18 04:54:56;;;;;;;64.68;26.48;;;;;;;0.45;100.00;98602.25;5022784;28;20068;-71
2023/12/18 04:57:22;;;;;;;54.28;24.02;;;;;;;0.29;100.00;98605.81;5014131;28;20069;-70
2023/12/18 04:59:47;;;;;;;57.65;25.88;;;;;;;0.47;100.00;98610.06;5012469;28;20033;-70
2023/12/18 05:02:12;;;;;;;63.97;25.30;;;;;;;0.48;100.00;98607.13;5016578;28;20038;-70
2023/12/18 05:04:38;;;;;;;62.92;24.70;;;;;;;0.50;100.00;98610.38;5016837;28;20516;-70
2023/12/18 05:07:03;;;;;;;59.58;24.17;;;;;;;0.58;100.00;98598.31;5009363;28;20045;-68
2023/12/18 05:09:29;;;;;;;59.20;24.02;;;;;;;0.60;100.00;98606.16;5013257;28;20518;-71
2023/12/18 05:11:54;;;;;;;54.20;24.85;;;;;;;0.63;100.00;98608.34;5023624;28;20128;-70
2023/12/18 05:14:19;;;;;;;52.13;22.58;;;;;;;0.61;100.00;98605.88;5008860;28;20061;-70
2023/12/18 05:16:45;;;;;;;56.50;24.92;;;;;;;0.55;100.00;98604.22;5016196;28;20045;-70
2023/12/18 05:19:10;;;;;;;52.35;23.42;;;;;;;0.54;100.00;98605.28;5011310;28;20625;-70
2023/12/18 05:21:36;;;;;;;51.70;23.75;;;;;;;0.60;100.00;98614.25;5018507;28;20033;-69
2023/12/18 05:24:01;;;;;;;58.63;26.05;;;;;;;0.42;100.00;98599.25;5007853;28;20037;-70
2023/12/18 05:26:26;;;;;;;61.65;25.08;;;;;;;0.65;100.00;98611.59;5013535;28;20246;-69
2023/12/18 05:28:52;;;;;;;55.60;24.50;;;;;;;0.65;100.00;98595.41;5004461;28;20060;-70
2023/12/18 05:31:20;;;;;;;58.20;24.13;;;;;;;0.68;100.00;98601.09;5010424;28;20579;-70
2023/12/18 05:33:45;;;;;;;60.03;25.40;;;;;;;0.61;100.00;98595.09;5008694;28;20136;-69
2023/12/18 05:36:10;;;;;;;63.47;25.55;;;;;;;0.66;100.00;98607.84;4995042;28;20093;-70
2023/12/18 05:38:36;;;;;;;54.97;24.20;;;;;;;0.54;100.00;98610.66;5015693;28;20037;-70
2023/12/18 05:41:01;;;;;;;57.83;24.98;;;;;;;0.47;100.00;98605.50;5005723;28;20048;-66
2023/12/18 05:43:27;;;;;;;59.80;25.48;;;;;;;0.53;100.00;98609.88;5006140;28;20038;-67
2023/12/18 05:45:52;;;;;;;55.78;23.88;;;;;;;0.62;100.00;98606.72;5013510;28;20041;-69
2023/12/18 05:48:18;;;;;;;62.08;25.67;;;;;;;0.65;100.00;98615.13;4997881;28;20046;-69
2023/12/18 05:50:43;;;;;;;53.65;25.23;;;;;;;0.56;100.00;98606.66;5017411;28;20096;-71
2023/12/18 05:53:08;;;;;;;60.20;25.55;;;;;;;0.61;100.00;98611.28;5000941;28;20029;-71
2023/12/18 05:55:34;;;;;;;57.78;24.92;;;;;;;0.66;100.00;98613.22;5009688;28;20480;-69
2023/12/18 05:57:59;;;;;;;59.08;25.27;;;;;;;0.47;100.00;98604.66;5030101;28;20041;-70
2023/12/18 06:00:24;;;;;;;59.53;24.35;;;;;;;0.54;100.00;98600.72;5001053;28;20038;-70
2023/12/18 06:02:50;;;;;;;55.65;22.83;;;;;;;0.53;100.00;98599.06;5016254;28;20048;-69
2023/12/18 06:05:15;;;;;;;59.70;25.48;;;;;;;0.52;100.00;98602.84;5004527;28;20033;-70
2023/12/18 06:07:41;;;;;;;57.20;24.90;;;;;;;0.59;100.00;98601.84;5016761;28;20030;-71
2023/12/18 06:10:10;;;;;;;63.50;24.67;;;;;;;0.60;100.00;98598.88;5002088;28;20037;-70
2023/12/18 06:12:37;;;;;;;60.30;23.77;;;;;;;0.62;100.00;98598.63;5017546;28;20042;-71
2023/12/18 06:15:04;;;;;;;52.90;21.42;;;;;;;0.52;100.00;98602.03;5017968;28;20408;-68
2023/12/18 06:17:29;;;;;;;52.40;22.15;;;;;;;0.65;100.00;98595.41;5015802;28;20386;-71
2023/12/18 06:19:55;;;;;;;55.53;22.52;;;;;;;0.59;100.00;98594.53;5013075;28;20168;-71
2023/12/18 06:22:22;;;;;;;53.72;22.77;;;;;;;0.63;100.00;98595.69;4998537;28;20488;-71
2023/12/18 06:24:47;;;;;;;53.80;22.77;;;;;;;0.73;100.00;98598.47;5018761;28;20195;-70
2023/12/18 06:27:13;;;;;;;53.33;22.40;;;;;;;0.81;100.00;98599.06;5007133;28;20058;-70
2023/12/18 06:29:38;;;;;;;55.35;22.80;;;;;;;0.83;100.00;98603.16;5008162;28;20038;-69
2023/12/18 06:32:04;;;;;;;51.45;21.75;;;;;;;0.69;100.00;98613.53;5008988;28;20044;-67
2023/12/18 06:34:29;;;;;;;50.80;22.15;;;;;;;0.53;100.00;98603.66;5001483;28;20053;-70
2023/12/18 06:36:55;;;;;;;51.58;21.63;;;;;;;0.73;100.00;98603.84;5011990;28;20037;-71
2023/12/18 06:39:20;;;;;;;49.83;21.90;;;;;;;0.90;100.00;98603.75;5016784;28;20041;-70
2023/12/18 06:41:45;;;;;;;52.13;22.33;;;;;;;0.96;100.00;98601.91;5011800;28;20097;-70
2023/12/18 06:44:11;;;;;;;54.08;22.83;;;;;;;0.91;100.00;98607.25;5011424;28;20128;-69
2023/12/18 06:46:36;;;;;;;51.42;21.38;;;;;;;0.89;100.00;98604.81;5000844;28;20057;-71
2023/12/18 06:49:02;;;;;;;51.30;21.15;;;;;;;0.89;100.00;98604.81;5009056;28;20137;-71
2023/12/18 06:51:27;;;;;;;52.78;21.48;;;;;;;0.84;100.00;98612.03;4996812;28;20042;-71
2023/12/18 06:53:53;;;;;;;51.50;23.88;;;;;;;0.80;100.00;98608.25;4998436;28;20054;-70
2023/12/18 06:56:18;;;;;;;49.33;20.48;;;;;;;0.73;100.00;98597.66;4999387;28;20042;-69
2023/12/18 06:58:44;;;;;;;46.92;20.98;;;;;;;0.62;100.00;98601.31;5004584;28;20042;-70
2023/12/18 07:01:09;;;;;;;45.58;20.15;;;;;;;0.71;100.00;98602.50;5020845;28;20033;-68
2023/12/18 07:03:35;;;;;;;51.30;21.27;;;;;;;0.54;100.00;98602.59;5013018;28;20048;-71
2023/12/18 07:06:01;;;;;;;50.53;21.48;;;;;;;0.54;100.00;98599.88;5012546;28;20070;-70
2023/12/18 07:08:29;;;;;;;50.15;20.67;;;;;;;0.65;100.00;98600.78;5005650;28;20045;-70
2023/12/18 07:10:56;;;;;;;48.35;20.48;;;;;;;0.60;100.00;98606.16;5004036;28;20052;-69
2023/12/18 07:13:21;;;;;;;48.70;22.13;;;;;;;0.63;100.00;98602.94;4998195;28;20045;-70
2023/12/18 07:15:47;;;;;;;55.60;21.90;;;;;;;0.65;100.00;98606.19;5013085;28;20037;-71
2023/12/18 07:18:13;;;;;;;54.17;22.42;;;;;;;0.60;100.00;98606.97;5016057;28;20061;-70
2023/12/18 07:20:39;;;;;;;60.80;23.70;;;;;;;0.60;100.00;98606.97;5014485;28;20042;-73
2023/12/18 07:23:05;;;;;;;68.78;23.77;;;;;;;0.53;100.00;98607.16;5012092;28;20037;-69
2023/12/18 07:25:31;;;;;;;57.55;22.95;;;;;;;0.48;100.00;98609.00;5007018;28;20041;-70
2023/12/18 07:27:56;;;;;;;65.63;24.42;;;;;;;0.37;100.00;98611.59;5022803;28;20037;-70
2023/12/18 07:30:22;;;;;;;55.67;22.67;;;;;;;0.41;100.00;98611.09;5018612;28;20049;-68
2023/12/18 07:32:47;;;;;;;57.53;22.88;;;;;;;0.55;100.00;98618.50;5022980;28;20041;-69
2023/12/18 07:35:12;;;;;;;60.67;22.88;;;;;;;0.46;100.00;98621.94;5016553;28;20586;-70
2023/12/18 07:37:38;;;;;;;56.60;23.45;;;;;;;0.37;100.00;98626.94;5020359;28;20061;-70
2023/12/18 07:40:04;;;;;;;52.15;23.50;;;;;;;0.43;100.00;98622.44;5013911;28;20512;-67
2023/12/18 07:42:29;;;;;;;53.25;21.88;;;;;;;0.26;100.00;98619.81;5023626;28;20105;-70
2023/12/18 07:44:55;;;;;;;52.85;21.77;;;;;;;0.31;100.00;98622.59;5014828;28;20080;-67
2023/12/18 07:47:21;;;;;;;53.42;22.83;;;;;;;0.33;100.00;98618.56;5020538;28;20046;-68
2023/12/18 07:49:48;;;;;;;51.28;21.60;;;;;;;0.48;100.00;98617.09;5022000;28;20060;-67
2023/12/18 07:52:14;;;;;;;54.30;19.15;;;;;;;0.73;100.00;98621.94;5016054;28;20057;-69
2023/12/18 07:54:39;;;;;;;53.03;21.17;;;;;;;0.80;100.00;98625.22;5015833;28;20073;-68
2023/12/18 07:57:05;;;;;;;48.80;20.67;;;;;;;0.77;100.00;98617.63;5013476;28;20040;-68
2023/12/18 07:59:30;;;;;;;57.10;22.65;;;;;;;0.69;100.00;98621.63;5025274;28;20152;-70
2023/12/18 08:01:56;;;;;;;63.40;29.00;;;;;;;0.68;100.00;98614.59;5023684;28;20033;-67
2023/12/18 08:04:21;;;;;;;56.10;22.88;;;;;;;0.54;100.00;98613.38;5013984;28;20522;-67
2023/12/18 08:06:52;;;;;;;50.25;21.23;;;;;;;0.53;100.00;98609.88;5025578;28;20037;-68
2023/12/18 08:09:18;;;;;;;51.22;22.13;;;;;;;0.63;100.00;98605.63;5011352;28;20792;-68
2023/12/18 08:11:43;;;;;;;55.50;22.50;;;;;;;0.71;100.00;98602.50;5016128;28;20033;-67
2023/12/18 08:14:09;;;;;;;53.88;22.40;;;;;;;0.69;100.00;98596.53;5017512;28;20069;-68
2023/12/18 08:16:34;;;;;;;54.70;21.23;;;;;;;0.75;100.00;98601.72;5015955;28;20065;-69
2023/12/18 08:19:00;;;;;;;59.15;22.98;;;;;;;0.69;100.00;98593.84;5018175;28;20033;-68
2023/12/18 08:21:26;;;;;;;56.80;21.85;;;;;;;0.89;100.00;98601.31;5015191;28;20087;-69
2023/12/18 08:23:52;;;;;;;57.53;25.98;;;;;;;0.87;100.00;98595.34;5016680;28;20041;-69
2023/12/18 08:26:17;;;;;;;51.90;20.25;;;;;;;0.96;100.00;98599.19;5002640;28;20037;-69
2023/12/18 08:28:44;;;;;;;48.10;19.35;;;;;;;0.99;100.00;98603.25;5029083;28;20034;-69
2023/12/18 08:31:11;;;;;;;50.28;20.73;;;;;;;1.07;100.00;98605.50;4999634;28;20042;-69
2023/12/18 08:33:37;;;;;;;49.38;19.15;;;;;;;0.93;100.00;98595.13;5023811;28;20052;-68
2023/12/18 08:36:03;;;;;;;44.00;18.98;;;;;;;0.89;100.00;98598.59;5027574;28;20053;-68
2023/12/18 08:38:29;;;;;;;43.85;17.88;;;;;;;0.88;100.00;98600.50;5020935;28;20113;-69
2023/12/18 08:40:54;;;;;;;38.75;17.20;;;;;;;0.98;100.00;98599.75;5013124;28;20048;-68
2023/12/18 08:43:20;;;;;;;45.25;19.00;;;;;;;0.87;100.00;98592.66;5008280;28;20058;-69
2023/12/18 08:45:45;;;;;;;44.72;18.77;;;;;;;0.80;100.00;98592.06;5015033;28;20048;-69
2023/12/18 08:48:12;;;;;;;45.13;18.92;;;;;;;0.92;100.00;98592.72;5025144;28;20033;-68
2023/12/18 08:50:37;;;;;;;38.42;16.30;;;;;;;0.98;100.00;98591.66;5022871;28;20041;-69
2023/12/18 08:53:03;;;;;;;44.05;18.05;;;;;;;0.99;100.00;98587.91;5014363;28;20492;-68
2023/12/18 08:55:29;;;;;;;45.40;17.45;;;;;;;0.91;100.00;98588.38;5015667;28;20049;-69
2023/12/18 08:57:54;;;;;;;39.72;17.67;;;;;;;1.03;100.00;98582.81;5016064;28;20034;-70
2023/12/18 09:00:20;;;;;;;47.80;22.60;;;;;;;0.78;100.00;98586.09;5010650;28;20050;-67
2023/12/18 09:02:45;;;;;;;39.75;18.02;;;;;;;0.82;100.00;98579.94;5020017;28;20041;-67
2023/12/18 09:05:11;;;;;;;42.78;17.20;;;;;;;1.02;100.00;98578.47;5006012;28;20496;-66
2023/12/18 09:07:36;;;;;;;39.80;17.05;;;;;;;0.98;100.00;98580.06;5029355;28;20045;-68
2023/12/18 09:10:02;;;;;;;40.80;18.52;;;;;;;0.93;100.00;98583.53;5005841;28;20052;-67
2023/12/18 09:12:27;;;;;;;39.28;17.98;;;;;;;0.91;100.00;98580.28;5002411;28;20133;-69
2023/12/18 09:14:52;;;;;;;43.65;19.38;;;;;;;1.06;100.00;98576.88;5019079;28;20070;-68
2023/12/18 09:17:18;;;;;;;39.50;17.55;;;;;;;1.14;100.00;98581.81;5017513;28;20056;-69
2023/12/18 09:19:43;;;;;;;40.80;17.75;;;;;;;1.16;100.00;98568.06;5009041;28;20041;-68
2023/12/18 09:22:09;;;;;;;41.65;18.83;;;;;;;1.17;100.00;98562.41;5020996;28;20480;-67
2023/12/18 09:24:34;;;;;;;44.95;18.77;;;;;;;1.18;100.00;98569.41;5017361;28;20037;-67
2023/12/18 09:27:00;;;;;;;42.35;17.17;;;;;;;1.13;100.00;98572.91;5031194;28;20449;-66
2023/12/18 09:29:25;;;;;;;47.63;18.52;;;;;;;1.14;100.00;98565.59;5013797;28;20049;-70
2023/12/18 09:31:51;;;;;;;43.90;18.35;;;;;;;1.09;100.00;98557.47;5015403;28;20084;-68
2023/12/18 09:34:16;;;;;;;48.45;19.02;;;;;;;0.98;100.00;98561.97;5034233;28;20048;-70
2023/12/18 09:36:42;;;;;;;46.85;17.75;;;;;;;0.92;100.00;98563.84;5016880;28;20045;-69
2023/12/18 09:39:07;;;;;;;39.88;18.17;;;;;;;0.89;100.00;98572.44;5032565;28;20042;-69
2023/12/18 09:41:33;;;;;;;46.08;19.05;;;;;;;0.98;100.00;98566.56;5024107;28;20046;-68
2023/12/18 09:43:59;;;;;;;44.42;19.30;;;;;;;1.26;100.00;98563.53;5011531;28;20045;-68
2023/12/18 09:46:25;;;;;;;48.83;18.25;;;;;;;1.28;100.00;98563.28;4994423;28;20034;-68
2023/12/18 09:48:54;;;;;;;43.58;18.83;;;;;;;1.24;100.00;98562.16;5035360;28;20057;-68
2023/12/18 09:51:21;;;;;;;42.03;18.25;;;;;;;1.32;100.00;98556.28;5007923;28;20069;-67
2023/12/18 09:53:48;;;;;;;38.15;17.65;;;;;;;1.27;100.00;98551.66;5015409;28;20049;-68
2023/12/18 09:56:15;;;;;;;47.83;19.10;;;;;;;1.37;100.00;98548.22;5005104;28;20068;-68
2023/12/18 09:58:43;;;;;;;42.08;17.80;;;;;;;1.50;100.00;98549.63;5013500;28;20049;-68
2023/12/18 10:01:08;;;;;;;43.30;18.90;;;;;;;1.58;100.00;98545.63;5016352;28;20038;-67
2023/12/18 10:03:33;;;;;;;46.25;17.88;;;;;;;1.55;100.00;98548.81;5016433;28;20056;-68
2023/12/18 10:06:00;;;;;;;50.33;20.10;;;;;;;1.54;100.00;98542.63;5021439;28;20041;-68
2023/12/18 10:08:26;;;;;;;40.60;17.02;;;;;;;1.49;100.00;98535.28;5009363;28;20042;-67
2023/12/18 10:10:52;;;;;;;42.22;18.30;;;;;;;1.42;100.00;98531.22;5014048;28;20089;-68
2023/12/18 10:13:17;;;;;;;40.75;19.00;;;;;;;1.53;100.00;98528.31;5014326;28;20044;-68
2023/12/18 10:15:43;;;;;;;42.20;17.90;;;;;;;1.38;100.00;98525.53;5008826;28;20508;-68
2023/12/18 10:18:09;;;;;;;44.40;17.98;;;;;;;1.39;100.00;98526.31;5012642;28;20038;-68
2023/12/18 10:20:35;;;;;;;43.22;17.92;;;;;;;1.38;100.00;98520.13;5017140;28;20049;-67
2023/12/18 10:23:01;;;;;;;45.63;21.25;;;;;;;1.39;100.00;98515.53;5030822;28;20072;-68
2023/12/18 10:25:27;;;;;;;51.28;19.80;;;;;;;1.47;100.00;98513.16;5011584;28;20060;-68
2023/12/18 10:27:55;;;;;;;62.33;24.63;;;;;;;1.55;100.00;98516.41;5024309;28;20030;-68
2023/12/18 10:30:25;;;;;;;56.45;21.85;;;;;;;1.55;100.00;98511.84;4999734;28;20568;-68
2023/12/18 10:32:55;;;;;;;37.90;17.40;;;;;;;1.44;100.00;98508.28;5009286;28;20041;-68
2023/12/18 10:35:23;;;;;;;;;;;;;;;1.62;100.00;98508.88;5005732;28;20092;-68
2023/12/18 10:37:53;;;;;;;36.90;16.50;;;;;;;1.26;100.00;98504.16;5014157;28;19917;-68
2023/12/18 10:40:22;;;;;;;35.72;16.13;;;;;;;1.39;100.00;98494.75;5000806;28;20133;-68
2023/12/18 10:43:21;;;;;;;43.78;18.25;;;;;;;1.38;100.00;98495.81;5011548;28;20038;-67
2023/12/18 10:45:48;;;;;;;37.92;17.05;;;;;;;1.52;100.00;98488.06;5010761;28;20046;-68
2023/12/18 10:48:16;;;;;;;45.90;17.73;;;;;;;1.62;100.00;98487.28;4998027;28;20149;-67
2023/12/18 10:50:42;;;;;;;38.47;17.73;;;;;;;1.59;100.00;98483.22;5001661;28;20057;-68
2023/12/18 10:53:11;;;;;;;39.83;17.23;;;;;;;1.87;100.00;98481.16;5014169;28;20041;-67
2023/12/18 10:55:38;;;;;;;36.58;16.52;;;;;;;1.78;100.00;98486.25;5008505;28;20057;-67
2023/12/18 10:58:04;;;;;;;54.30;18.50;;;;;;;1.84;100.00;98477.09;5024279;28;20057;-66
2023/12/18 11:00:35;;;;;;;39.85;16.98;;;;;;;1.84;100.00;98492.50;5023786;28;20492;-68
2023/12/18 11:03:01;;;;;;;35.13;16.42;;;;;;;2.09;100.00;98489.06;5004443;28;20069;-68
2023/12/18 11:05:29;;;;;;;41.55;15.38;;;;;;;2.01;100.00;98476.88;4992157;28;20049;-66
2023/12/18 11:07:56;;;;;;;36.38;15.95;;;;;;;2.00;100.00;98475.25;5016411;28;20037;-67
2023/12/18 11:10:21;;;;;;;35.05;15.55;;;;;;;2.13;100.00;98473.94;5017961;28;20619;-67